createdAt,value
2023-04-11T00:02:25.015Z,100716.19
2023-04-11T00:04:55.106Z,100716.88
2023-04-11T00:07:22.940Z,100696.94
2023-04-11T00:09:50.629Z,100700.59
2023-04-11T00:12:18.306Z,100696.91
2023-04-11T00:14:49.093Z,100701.72
2023-04-11T00:17:17.701Z,100694.78
2023-04-11T00:19:47.215Z,100690.09
2023-04-11T00:22:16.144Z,100692.09
2023-04-11T00:24:43.960Z,100681.09
2023-04-11T00:27:11.675Z,100681.59
2023-04-11T00:29:39.375Z,100668.13
2023-04-11T00:32:07.870Z,100673.78
2023-04-11T00:34:35.857Z,100659.47
2023-04-11T00:37:05.003Z,100662.47
2023-04-11T00:39:35.067Z,100655.97
2023-04-11T00:42:07.795Z,100653.81
2023-04-11T00:44:36.186Z,100648.16
2023-04-11T00:47:06.296Z,100644.19
2023-04-11T00:49:34.243Z,100643.69
2023-04-11T00:52:02.630Z,100645.81
2023-04-11T00:54:32.085Z,100639.47
2023-04-11T00:57:01.029Z,100640.03
2023-04-11T00:59:28.853Z,100635.03
2023-04-11T01:01:57.162Z,100620.72
2023-04-11T01:04:26.144Z,100631.38
2023-04-11T01:06:57.147Z,100625.88
2023-04-11T01:09:27.219Z,100622.53
2023-04-11T01:11:57.804Z,100621.22
2023-04-11T01:14:27.074Z,100610.19
2023-04-11T01:16:56.517Z,100609.56
2023-04-11T01:19:26.875Z,100605.91
2023-04-11T01:21:56.728Z,100594.47
2023-04-11T01:24:25.938Z,100591.78
2023-04-11T01:26:53.847Z,100582.09
2023-04-11T01:29:21.618Z,100586.19
2023-04-11T01:31:50.356Z,100581.47
2023-04-11T01:34:18.673Z,100580.22
2023-04-11T01:36:46.811Z,100577.72
2023-04-11T01:39:15.377Z,100572.53
2023-04-11T01:41:45.420Z,100565.69
2023-04-11T01:44:14.184Z,100569.72
2023-04-11T01:46:43.256Z,100566.53
2023-04-11T01:49:11.079Z,100561.66
2023-04-11T01:51:38.875Z,100571.28
2023-04-11T01:54:06.920Z,100568.47
2023-04-11T01:56:34.682Z,100582.94
2023-04-11T01:59:04.436Z,100570.34
2023-04-11T02:01:32.314Z,100576.47
2023-04-11T02:04:00.259Z,100577.50
2023-04-11T02:06:28.530Z,100567.13
2023-04-11T02:08:56.428Z,100550.75
2023-04-11T02:11:24.291Z,100555.09
2023-04-11T02:13:52.839Z,100549.78
2023-04-11T02:16:25.848Z,100553.81
2023-04-11T02:18:54.342Z,100544.28
2023-04-11T02:21:22.498Z,100546.22
2023-04-11T02:23:50.330Z,100540.38
2023-04-11T02:26:18.113Z,100522.16
2023-04-11T02:28:45.837Z,100552.91
2023-04-11T02:31:13.624Z,100530.09
2023-04-11T02:33:42.993Z,100567.97
2023-04-11T02:36:12.494Z,100547.38
2023-04-11T02:38:40.332Z,100527.44
2023-04-11T02:41:08.753Z,100519.94
2023-04-11T02:43:36.557Z,100506.50
2023-04-11T02:46:12.577Z,100491.38
2023-04-11T02:48:42.931Z,100502.28
2023-04-11T02:51:10.680Z,100488.66
2023-04-11T02:53:38.388Z,100499.69
2023-04-11T02:56:07.781Z,100453.03
2023-04-11T02:58:39.008Z,100423.03
2023-04-11T03:01:07.978Z,100372.66
2023-04-11T03:03:35.823Z,100141.44
2023-04-11T03:06:06.821Z,100165.81
2023-04-11T03:08:35.880Z,100287.63
2023-04-11T03:11:03.808Z,100011.38
2023-04-11T03:13:32.092Z,99891.75
2023-04-11T03:15:59.979Z,99894.19
2023-04-11T03:18:27.732Z,99893.91
2023-04-11T03:20:56.053Z,99907.66
2023-04-11T03:23:25.390Z,99923.06
2023-04-11T03:25:53.725Z,99920.28
2023-04-11T03:28:21.478Z,99903.34
2023-04-11T03:30:50.566Z,99898.19
2023-04-11T03:33:18.317Z,99913.00
2023-04-11T03:35:46.100Z,99919.25
2023-04-11T03:38:13.908Z,99909.13
2023-04-11T03:40:43.076Z,99909.34
2023-04-11T03:43:10.817Z,99917.97
2023-04-11T03:45:38.557Z,99928.38
2023-04-11T03:48:07.062Z,99912.34
2023-04-11T03:50:34.918Z,99915.94
2023-04-11T03:53:02.676Z,99948.25
2023-04-11T03:55:30.409Z,99944.59
2023-04-11T03:57:59.542Z,99899.47
2023-04-11T04:00:28.297Z,99921.09
2023-04-11T04:02:56.176Z,99941.13
2023-04-11T04:05:24.130Z,99953.72
2023-04-11T04:07:53.493Z,99938.31
2023-04-11T04:10:22.269Z,99929.03
2023-04-11T04:12:50.059Z,99935.81
2023-04-11T04:15:19.412Z,99949.09
2023-04-11T04:17:47.165Z,99966.97
2023-04-11T04:20:14.972Z,99964.31
2023-04-11T04:22:42.748Z,99973.75
2023-04-11T04:25:12.668Z,99963.94
2023-04-11T04:27:44.438Z,99954.16
2023-04-11T04:30:15.727Z,99931.44
2023-04-11T04:32:45.292Z,99935.31
2023-04-11T04:35:14.185Z,99933.47
2023-04-11T04:37:45.692Z,99952.75
2023-04-11T04:40:15.948Z,99947.44
2023-04-11T04:42:43.787Z,99934.16
2023-04-11T04:45:11.883Z,99921.56
2023-04-11T04:47:39.671Z,99936.16
2023-04-11T04:50:09.961Z,99953.38
2023-04-11T04:52:37.726Z,99962.16
2023-04-11T04:55:06.330Z,99961.47
2023-04-11T04:57:34.038Z,99951.75
2023-04-11T05:00:01.811Z,99947.25
2023-04-11T05:02:30.848Z,99932.16
2023-04-11T05:05:04.131Z,99933.66
2023-04-11T05:07:33.227Z,99926.41
2023-04-11T05:10:00.868Z,99933.34
2023-04-11T05:12:28.784Z,99933.84
2023-04-11T05:14:57.611Z,99935.66
2023-04-11T05:17:28.833Z,99925.22
2023-04-11T05:19:56.580Z,99906.69
2023-04-11T05:22:24.319Z,99917.63
2023-04-11T05:24:53.453Z,99921.94
2023-04-11T05:27:21.290Z,99915.06
2023-04-11T05:29:49.019Z,99903.16
2023-04-11T05:32:16.726Z,99878.38
2023-04-11T05:34:58.833Z,99880.50
2023-04-11T05:37:27.257Z,99870.97
2023-04-11T05:39:56.384Z,99894.09
2023-04-11T05:42:24.232Z,99895.72
2023-04-11T05:44:51.930Z,99907.69
2023-04-11T05:47:19.725Z,99925.41
2023-04-11T05:49:48.665Z,99936.19
2023-04-11T05:52:16.545Z,99917.56
2023-04-11T05:54:44.267Z,99911.50
2023-04-11T05:57:13.340Z,99940.81
2023-04-11T05:59:41.115Z,100305.94
2023-04-11T06:02:09.096Z,100227.94
2023-04-11T06:04:37.114Z,100119.50
2023-04-11T06:07:04.933Z,100065.69
2023-04-11T06:09:34.081Z,100063.38
2023-04-11T06:12:02.052Z,100066.00
2023-04-11T06:14:31.133Z,100054.88
2023-04-11T06:16:58.871Z,100069.16
2023-04-11T06:19:26.626Z,100054.44
2023-04-11T06:21:54.389Z,100018.97
2023-04-11T06:24:36.005Z,99989.63
2023-04-11T06:27:04.482Z,99997.75
2023-04-11T06:29:33.698Z,100022.97
2023-04-11T06:32:01.438Z,100043.34
2023-04-11T06:34:29.241Z,100051.13
2023-04-11T06:36:57.693Z,100051.09
2023-04-11T06:39:25.741Z,100066.03
2023-04-11T06:41:53.505Z,100064.38
2023-04-11T06:44:21.277Z,100015.31
2023-04-11T06:46:50.413Z,100003.34
2023-04-11T06:49:18.927Z,99977.88
2023-04-11T06:51:49.981Z,99960.09
2023-04-11T06:54:18.185Z,99943.56
2023-04-11T06:56:45.957Z,99959.19
2023-04-11T06:59:13.750Z,99947.91
2023-04-11T07:01:41.556Z,99936.13
2023-04-11T07:04:10.862Z,99935.34
2023-04-11T07:06:39.040Z,99904.03
2023-04-11T07:09:07.428Z,99857.00
2023-04-11T07:11:35.164Z,99849.09
2023-04-11T07:14:03.555Z,99842.13
2023-04-11T07:16:31.320Z,99835.41
2023-04-11T07:19:00.062Z,99841.75
2023-04-11T07:21:30.201Z,99853.66
2023-04-11T07:23:58.035Z,99843.03
2023-04-11T07:26:31.926Z,99845.53
2023-04-11T07:28:59.841Z,99830.66
2023-04-11T07:31:27.907Z,99852.78
2023-04-11T07:33:55.941Z,99862.03
2023-04-11T07:36:25.044Z,99862.50
2023-04-11T07:38:54.185Z,99874.72
2023-04-11T07:41:21.909Z,99861.22
2023-04-11T07:43:49.641Z,99857.47
2023-04-11T07:46:17.413Z,99976.38
2023-04-11T07:48:45.154Z,100214.94
2023-04-11T07:51:13.416Z,100291.38
2023-04-11T07:53:41.176Z,100295.09
2023-04-11T07:56:11.365Z,100333.69
2023-04-11T07:58:39.114Z,100332.56
2023-04-11T08:01:09.106Z,100339.38
2023-04-11T08:03:37.095Z,100330.47
2023-04-11T08:06:05.804Z,100338.31
2023-04-11T08:08:33.561Z,100337.84
2023-04-11T08:11:01.256Z,100347.72
2023-04-11T08:13:30.354Z,100352.09
2023-04-11T08:15:58.094Z,100350.50
2023-04-11T08:18:26.021Z,100345.66
2023-04-11T08:20:53.739Z,100356.28
2023-04-11T08:23:22.742Z,100364.91
2023-04-11T08:25:50.412Z,100398.16
2023-04-11T08:28:18.221Z,100404.53
2023-04-11T08:30:47.347Z,100377.59
2023-04-11T08:33:15.762Z,100384.94
2023-04-11T08:35:43.551Z,100384.88
2023-04-11T08:38:11.414Z,100397.13
2023-04-11T08:40:39.143Z,100382.56
2023-04-11T08:43:11.965Z,100367.59
2023-04-11T08:45:39.871Z,100385.03
2023-04-11T08:48:09.518Z,100394.81
2023-04-11T08:50:37.634Z,100390.81
2023-04-11T08:53:05.702Z,100418.91
2023-04-11T08:55:33.419Z,100448.63
2023-04-11T08:58:02.941Z,100435.47
2023-04-11T09:00:32.565Z,100453.31
2023-04-11T09:03:02.140Z,100471.25
2023-04-11T09:05:32.897Z,100481.88
2023-04-11T09:08:02.228Z,100494.50
2023-04-11T09:10:30.356Z,100487.69
2023-04-11T09:12:58.912Z,100489.94
2023-04-11T09:15:28.061Z,100472.78
2023-04-11T09:18:00.366Z,100474.16
2023-04-11T09:20:30.328Z,100468.75
2023-04-11T09:23:00.242Z,100472.91
2023-04-11T09:25:28.804Z,100483.41
2023-04-11T09:28:08.810Z,100505.81
2023-04-11T09:30:37.021Z,100496.50
2023-04-11T09:33:21.424Z,100505.16
2023-04-11T09:35:50.418Z,100499.16
2023-04-11T09:38:30.831Z,100487.41
2023-04-11T09:40:59.193Z,100499.66
2023-04-11T09:43:27.668Z,100504.97
2023-04-11T09:46:11.937Z,100487.69
2023-04-11T09:51:12.677Z,100496.16
2023-04-11T09:53:44.265Z,100489.97
2023-04-11T09:56:12.313Z,100494.84
2023-04-11T09:58:41.897Z,100497.59
2023-04-11T10:01:11.493Z,100510.81
2023-04-11T10:03:40.007Z,100501.31
2023-04-11T10:06:11.090Z,100505.66
2023-04-11T10:08:41.751Z,100492.94
2023-04-11T10:11:14.603Z,100503.91
2023-04-11T10:13:43.937Z,100516.47
2023-04-11T10:16:13.478Z,100505.78
2023-04-11T10:19:22.801Z,100487.19
2023-04-11T10:21:50.625Z,100473.38
2023-04-11T10:24:20.201Z,100392.59
2023-04-11T10:26:52.096Z,100310.34
2023-04-11T10:29:50.002Z,100250.09
2023-04-11T10:32:24.467Z,100217.38
2023-04-11T10:35:32.056Z,100206.28
2023-04-11T10:37:59.840Z,100254.25
2023-04-11T10:40:27.663Z,100315.81
2023-04-11T10:42:57.454Z,100348.34
2023-04-11T10:45:27.161Z,100335.16
2023-04-11T10:48:07.780Z,100309.84
2023-04-11T10:50:38.083Z,100310.13
2023-04-11T10:53:07.443Z,100332.75
2023-04-11T10:55:46.056Z,100371.88
2023-04-11T10:58:16.739Z,100382.34
2023-04-11T11:01:31.198Z,100420.09
2023-04-11T11:04:05.769Z,100494.03
2023-04-11T11:06:46.020Z,100488.53
2023-04-11T11:09:24.363Z,100483.03
2023-04-11T11:12:13.984Z,100448.84
2023-04-11T11:14:44.990Z,100469.28
2023-04-11T11:17:14.052Z,100518.44
2023-04-11T11:19:45.247Z,100515.41
2023-04-11T11:22:16.148Z,100533.28
2023-04-11T11:24:43.920Z,100538.28
2023-04-11T11:27:19.804Z,100551.09
2023-04-11T11:29:49.012Z,100557.38
2023-04-11T11:32:22.724Z,100569.53
2023-04-11T11:34:52.690Z,100568.19
2023-04-11T11:37:21.418Z,100560.78
2023-04-11T11:39:50.026Z,100562.19
2023-04-11T11:42:17.946Z,100564.81
2023-04-11T11:44:45.842Z,100571.16
2023-04-11T11:47:16.097Z,100551.81
2023-04-11T11:49:45.689Z,100560.69
2023-04-11T11:52:14.105Z,100563.38
2023-04-11T11:54:45.508Z,100561.53
2023-04-11T11:57:13.322Z,100590.31
2023-04-11T11:59:41.393Z,100599.84
2023-04-11T12:02:09.902Z,100576.81
2023-04-11T12:04:39.246Z,100590.78
2023-04-11T12:07:10.513Z,100587.81
2023-04-11T12:09:38.239Z,100615.50
2023-04-11T12:12:09.865Z,100614.50
2023-04-11T12:14:37.630Z,100606.84
2023-04-11T12:17:05.344Z,100607.75
2023-04-11T12:19:33.044Z,100608.22
2023-04-11T12:22:02.749Z,100614.03
2023-04-11T12:24:30.541Z,100631.63
2023-04-11T12:27:07.028Z,100630.19
2023-04-11T12:29:35.741Z,100632.16
2023-04-11T12:32:03.996Z,100632.00
2023-04-11T12:34:31.706Z,100629.16
2023-04-11T12:36:59.422Z,100633.88
2023-04-11T12:39:28.491Z,100639.53
2023-04-11T12:41:56.232Z,100640.81
2023-04-11T12:44:24.005Z,100638.19
2023-04-11T12:46:51.906Z,100639.75
2023-04-11T12:49:19.667Z,100650.81
2023-04-11T12:51:47.374Z,100652.53
2023-04-11T12:54:15.173Z,100659.78
2023-04-11T12:56:44.233Z,100666.31
2023-04-11T12:59:11.973Z,100640.88
2023-04-11T13:01:39.747Z,100645.44
2023-04-11T13:04:07.727Z,100664.03
2023-04-11T13:06:35.557Z,100663.25
2023-04-11T13:09:05.931Z,100664.41
2023-04-11T13:11:34.800Z,100662.75
2023-04-11T13:14:04.046Z,100672.56
2023-04-11T13:16:32.876Z,100671.81
2023-04-11T13:19:01.294Z,100672.97
2023-04-11T13:21:29.032Z,100690.22
2023-04-11T13:23:56.997Z,100679.28
2023-04-11T13:26:24.950Z,100686.28
2023-04-11T13:28:52.697Z,100680.25
2023-04-11T13:31:26.383Z,100688.19
2023-04-11T13:33:54.247Z,100689.41
2023-04-11T13:36:22.045Z,100686.16
2023-04-11T13:38:51.384Z,100684.06
2023-04-11T13:41:19.078Z,100687.13
2023-04-11T13:43:46.797Z,100688.59
2023-04-11T13:46:16.160Z,100674.75
2023-04-11T13:48:45.293Z,100680.88
2023-04-11T13:51:13.234Z,100665.03
2023-04-11T13:53:41.194Z,100659.22
2023-04-11T13:56:10.632Z,100659.22
2023-04-11T13:58:39.112Z,100656.81
2023-04-11T14:01:08.184Z,100685.59
2023-04-11T14:03:36.130Z,100694.72
2023-04-11T14:06:05.920Z,100688.16
2023-04-11T14:08:33.635Z,100698.63
2023-04-11T14:11:01.447Z,100708.25
2023-04-11T14:13:29.140Z,100732.31
2023-04-11T14:16:07.915Z,100715.28
2023-04-11T14:18:37.017Z,100721.53
2023-04-11T14:21:07.315Z,100707.31
2023-04-11T14:23:35.838Z,100703.13
2023-04-11T14:26:03.621Z,100717.94
2023-04-11T14:28:31.371Z,100639.91
2023-04-11T14:30:59.205Z,100620.34
2023-04-11T14:33:27.377Z,100624.88
2023-04-11T14:35:55.097Z,100562.22
2023-04-11T14:38:24.184Z,100518.91
2023-04-11T14:40:51.899Z,100535.06
2023-04-11T14:43:19.653Z,100532.94
2023-04-11T14:45:47.882Z,100497.81
2023-04-11T14:48:16.078Z,100486.84
2023-04-11T14:50:43.826Z,100454.28
2023-04-11T14:53:11.597Z,100431.53
2023-04-11T14:55:42.764Z,100401.94
2023-04-11T14:58:11.161Z,100408.34
2023-04-11T15:00:38.951Z,100407.69
2023-04-11T15:03:06.805Z,100404.53
2023-04-11T15:05:34.698Z,100431.25
2023-04-11T15:08:02.426Z,100419.63
2023-04-11T15:10:31.917Z,100491.69
2023-04-11T15:13:00.987Z,100499.63
2023-04-11T15:15:28.731Z,100494.31
2023-04-11T15:18:21.537Z,100522.84
2023-04-11T15:20:49.574Z,100551.09
2023-04-11T15:23:17.950Z,100610.13
2023-04-11T15:25:46.156Z,100603.81
2023-04-11T15:28:15.274Z,100607.94
2023-04-11T15:30:48.337Z,100569.66
2023-04-11T15:33:17.015Z,100565.69
2023-04-11T15:35:45.794Z,100587.22
2023-04-11T15:38:15.269Z,100578.31
2023-04-11T15:40:43.163Z,100620.16
2023-04-11T15:43:11.053Z,100633.75
2023-04-11T15:45:40.507Z,100655.78
2023-04-11T15:48:08.260Z,100658.94
2023-04-11T15:50:35.980Z,100622.25
2023-04-11T15:53:03.711Z,100652.44
2023-04-11T15:55:32.866Z,100685.44
2023-04-11T15:58:00.775Z,100715.91
2023-04-11T16:00:28.674Z,100733.31
2023-04-11T16:03:02.867Z,100743.94
2023-04-11T16:05:32.027Z,100781.94
2023-04-11T16:08:00.586Z,100793.34
2023-04-11T16:10:30.027Z,100803.34
2023-04-11T16:12:57.906Z,100794.19
2023-04-11T16:15:25.632Z,100835.56
2023-04-11T16:17:53.375Z,100841.31
2023-04-11T16:20:22.754Z,100836.88
2023-04-11T16:22:50.545Z,100805.72
2023-04-11T16:25:21.023Z,100813.00
2023-04-11T16:27:49.537Z,100813.50
2023-04-11T16:30:17.451Z,100786.63
2023-04-11T16:32:45.556Z,100798.88
2023-04-11T16:35:13.325Z,100791.13
2023-04-11T16:37:42.459Z,100796.72
2023-04-11T16:40:11.487Z,100805.59
2023-04-11T16:42:39.814Z,100810.19
2023-04-11T16:45:09.122Z,100792.88
2023-04-11T16:47:37.075Z,100816.56
2023-04-11T16:50:05.732Z,100796.88
2023-04-11T16:52:33.949Z,100835.84
2023-04-11T16:55:03.503Z,100824.25
2023-04-11T16:57:33.169Z,100819.66
2023-04-11T17:00:06.248Z,100840.00
2023-04-11T17:02:34.137Z,100849.75
2023-04-11T17:05:01.968Z,100836.69
2023-04-11T17:07:29.766Z,100841.81
2023-04-11T17:09:57.493Z,100860.75
2023-04-11T17:12:27.103Z,100863.13
2023-04-11T17:14:55.978Z,100853.91
2023-04-11T17:17:23.755Z,100845.72
2023-04-11T17:19:51.516Z,100838.69
2023-04-11T17:22:19.300Z,100854.50
2023-04-11T17:24:47.025Z,100856.75
2023-04-11T17:27:14.797Z,100839.16
2023-04-11T17:29:43.925Z,100851.16
2023-04-11T17:32:11.996Z,100842.44
2023-04-11T17:34:39.703Z,100851.84
2023-04-11T17:37:07.450Z,100841.38
2023-04-11T17:39:36.655Z,100846.97
2023-04-11T17:42:04.812Z,100847.41
2023-04-11T17:44:32.602Z,100825.81
2023-04-11T17:47:01.694Z,100830.56
2023-04-11T17:49:29.516Z,100822.03
2023-04-11T17:51:59.635Z,100853.38
2023-04-11T17:54:27.757Z,100848.94
2023-04-11T17:56:56.267Z,100852.56
2023-04-11T17:59:25.505Z,100841.81
2023-04-11T18:01:55.932Z,100831.25
2023-04-11T18:04:25.388Z,100829.97
2023-04-11T18:06:53.140Z,100826.38
2023-04-11T18:09:20.879Z,100819.22
2023-04-11T18:11:48.579Z,100829.56
2023-04-11T18:14:16.250Z,100820.81
2023-04-11T18:16:47.092Z,100822.47
2023-04-11T18:19:14.819Z,100816.59
2023-04-11T18:21:43.956Z,100826.94
2023-04-11T18:24:11.656Z,100847.13
2023-04-11T18:26:39.368Z,100848.53
2023-04-11T18:29:07.071Z,100870.38
2023-04-11T18:31:35.309Z,100856.72
2023-04-11T18:34:03.814Z,100859.25
2023-04-11T18:36:32.861Z,100860.75
2023-04-11T18:39:02.016Z,100883.59
2023-04-11T18:41:29.742Z,100858.84
2023-04-11T18:43:57.747Z,100849.66
2023-04-11T18:46:25.852Z,100840.16
2023-04-11T18:48:54.010Z,100848.25
2023-04-11T18:51:21.749Z,100866.91
2023-04-11T18:53:49.491Z,100860.50
2023-04-11T18:56:18.572Z,100862.75
2023-04-11T18:58:48.688Z,100871.91
2023-04-11T19:01:19.045Z,100873.00
2023-04-11T19:03:47.018Z,100861.03
2023-04-11T19:06:15.087Z,100847.22
2023-04-11T19:08:42.824Z,100841.22
2023-04-11T19:11:10.671Z,100844.47
2023-04-11T19:13:39.883Z,100855.34
2023-04-11T19:16:08.028Z,100862.72
2023-04-11T19:18:35.814Z,100868.03
2023-04-11T19:21:03.685Z,100880.66
2023-04-11T19:23:31.415Z,100858.81
2023-04-11T19:26:00.633Z,100866.94
2023-04-11T19:28:28.399Z,100858.13
2023-04-11T19:30:57.510Z,100889.03
2023-04-11T19:33:26.128Z,100847.31
2023-04-11T19:35:54.235Z,100852.22
2023-04-11T19:38:22.347Z,100861.38
2023-04-11T19:40:50.144Z,100855.81
2023-04-11T19:43:17.864Z,100875.06
2023-04-11T19:45:47.108Z,100869.25
2023-04-11T19:48:16.958Z,100879.88
2023-04-11T19:50:44.843Z,100869.28
2023-04-11T19:53:12.573Z,100879.19
2023-04-11T19:55:41.118Z,100892.50
2023-04-11T19:58:08.909Z,100889.47
2023-04-11T20:00:38.496Z,100895.69
2023-04-11T20:03:07.973Z,100897.69
2023-04-11T20:05:37.305Z,100895.47
2023-04-11T20:08:05.054Z,100909.75
2023-04-11T20:10:34.126Z,100875.91
2023-04-11T20:13:01.909Z,100876.09
2023-04-11T20:15:29.920Z,100910.75
2023-04-11T20:17:57.907Z,100910.44
2023-04-11T20:20:27.923Z,100924.50
2023-04-11T20:22:57.223Z,100895.03
2023-04-11T20:25:25.060Z,100927.38
2023-04-11T20:27:53.422Z,100928.75
2023-04-11T20:30:21.830Z,100912.19
2023-04-11T20:32:49.639Z,100902.66
2023-04-11T20:35:19.246Z,100906.19
2023-04-11T20:37:47.840Z,100890.31
2023-04-11T20:40:17.594Z,100897.16
2023-04-11T20:42:47.387Z,100898.41
2023-04-11T20:45:17.258Z,100896.69
2023-04-11T20:47:46.308Z,100893.97
2023-04-11T20:50:15.792Z,100891.72
2023-04-11T20:52:45.666Z,100886.84
2023-04-11T20:55:15.614Z,100884.44
2023-04-11T20:57:45.062Z,100897.75
2023-04-11T21:00:14.546Z,100894.91
2023-04-11T21:02:44.575Z,100903.63
2023-04-11T21:05:12.982Z,100921.50
2023-04-11T21:07:41.414Z,100919.97
2023-04-11T21:10:10.520Z,100905.19
2023-04-11T21:12:38.551Z,100892.22
2023-04-11T21:15:09.054Z,100886.00
2023-04-11T21:17:39.438Z,100890.31
2023-04-11T21:20:11.082Z,100875.03
2023-04-11T21:22:40.732Z,100887.25
2023-04-11T21:25:09.525Z,100893.84
2023-04-11T21:27:37.254Z,100899.19
2023-04-11T21:30:06.422Z,100895.91
2023-04-11T21:32:35.662Z,100888.81
2023-04-11T21:35:04.107Z,100884.69
2023-04-11T21:37:31.859Z,100887.41
2023-04-11T21:39:59.568Z,100897.69
2023-04-11T21:42:27.343Z,100926.38
2023-04-11T21:44:55.077Z,100889.66
2023-04-11T21:47:22.812Z,100856.00
2023-04-11T21:49:51.941Z,100860.25
2023-04-11T21:52:19.656Z,100831.75
2023-04-11T21:54:47.484Z,100851.09
2023-04-11T21:57:15.219Z,100846.00
2023-04-11T21:59:43.016Z,100844.28
2023-04-11T22:02:10.919Z,100838.66
2023-04-11T22:04:51.176Z,100841.94
2023-04-11T22:07:25.375Z,100857.84
2023-04-11T22:09:58.242Z,100848.94
2023-04-11T22:12:27.337Z,100845.09
2023-04-11T22:14:56.640Z,100855.78
2023-04-11T22:17:24.741Z,100844.72
2023-04-11T22:19:52.490Z,100834.34
2023-04-11T22:22:20.321Z,100833.59
2023-04-11T22:24:50.229Z,100840.53
2023-04-11T22:27:18.766Z,100850.53
2023-04-11T22:29:47.032Z,100857.72
2023-04-11T22:32:14.770Z,100872.81
2023-04-11T22:34:42.465Z,100870.03
2023-04-11T22:37:10.182Z,100861.91
2023-04-11T22:39:37.928Z,100865.88
2023-04-11T22:42:07.790Z,100856.94
2023-04-11T22:44:35.504Z,100874.41
2023-04-11T22:47:06.723Z,100881.19
2023-04-11T22:49:40.179Z,100904.28
2023-04-11T22:52:08.282Z,100912.28
2023-04-11T22:54:36.177Z,100891.84
2023-04-11T22:57:03.938Z,100912.09
2023-04-11T22:59:33.380Z,100910.41
2023-04-11T23:02:01.129Z,100931.88
2023-04-11T23:04:28.968Z,100925.66
2023-04-11T23:06:58.143Z,100918.91
2023-04-11T23:09:26.368Z,100903.06
2023-04-11T23:11:54.242Z,100889.50
2023-04-11T23:14:22.281Z,100880.78
2023-04-11T23:16:51.482Z,100847.81
2023-04-11T23:19:19.877Z,100827.06
2023-04-11T23:21:47.658Z,100833.41
2023-04-11T23:24:15.870Z,100817.31
2023-04-11T23:26:43.585Z,100775.16
2023-04-11T23:29:12.148Z,100760.72
2023-04-11T23:31:39.862Z,100777.22
2023-04-11T23:34:08.990Z,100785.22
2023-04-11T23:36:37.643Z,100798.00
2023-04-11T23:39:05.720Z,100767.25
2023-04-11T23:41:33.490Z,100720.91
2023-04-11T23:44:01.193Z,100702.19
2023-04-11T23:46:28.998Z,100728.25
2023-04-11T23:48:56.958Z,100729.44
2023-04-11T23:51:27.026Z,100686.44
2023-04-11T23:53:54.752Z,100678.16
2023-04-11T23:56:23.040Z,100680.63
2023-04-11T23:58:50.782Z,100651.44
